sensor_id;sensor_type;location;lat;lon;timestamp;P1;durP1;ratioP1;P2;durP2;ratioP2
57790;SDS011;43621;51.798;21.588;2023-11-19T18:01:55;28.10;;;17.80;;
57790;SDS011;43621;51.798;21.588;2023-11-19T18:06:00;26.90;;;19.00;;
57790;SDS011;43621;51.798;21.588;2023-11-19T18:10:03;26.30;;;18.70;;
57790;SDS011;43621;51.798;21.588;2023-11-19T18:14:06;27.20;;;17.70;;
57790;SDS011;43621;51.798;21.588;2023-11-19T18:18:11;28.80;;;18.40;;
57790;SDS011;43621;51.798;21.588;2023-11-19T18:22:13;24.40;;;17.30;;
57790;SDS011;43621;51.798;21.588;2023-11-19T18:26:15;24.90;;;17.40;;
57790;SDS011;43621;51.798;21.588;2023-11-19T18:30:17;26.50;;;16.90;;
57790;SDS011;43621;51.798;21.588;2023-11-19T18:34:19;25.30;;;17.70;;
57790;SDS011;43621;51.798;21.588;2023-11-19T18:38:20;23.60;;;17.00;;
57790;SDS011;43621;51.798;21.588;2023-11-19T18:42:22;26.30;;;17.30;;
57790;SDS011;43621;51.798;21.588;2023-11-19T18:46:24;25.00;;;16.70;;
57790;SDS011;43621;51.798;21.588;2023-11-19T18:50:25;22.30;;;15.80;;
57790;SDS011;43621;51.798;21.588;2023-11-19T18:54:27;24.30;;;16.40;;
57790;SDS011;43621;51.798;21.588;2023-11-19T18:58:29;24.70;;;15.80;;
57790;SDS011;43621;51.798;21.588;2023-11-19T19:02:31;24.50;;;15.00;;
57790;SDS011;43621;51.798;21.588;2023-11-19T19:06:35;23.50;;;14.40;;
57790;SDS011;43621;51.798;21.588;2023-11-19T19:11:00;21.90;;;14.50;;
57790;SDS011;43621;51.798;21.588;2023-11-19T19:15:03;21.90;;;14.30;;
57790;SDS011;43621;51.798;21.588;2023-11-19T19:19:06;20.10;;;14.50;;
57790;SDS011;43621;51.798;21.588;2023-11-19T19:23:08;20.50;;;14.80;;
57790;SDS011;43621;51.798;21.588;2023-11-19T19:27:10;19.30;;;13.60;;
57790;SDS011;43621;51.798;21.588;2023-11-19T19:31:11;20.80;;;14.70;;
57790;SDS011;43621;51.798;21.588;2023-11-19T19:35:18;21.30;;;14.00;;
57790;SDS011;43621;51.798;21.588;2023-11-19T19:39:21;20.00;;;13.30;;
57790;SDS011;43621;51.798;21.588;2023-11-19T19:43:24;18.50;;;13.10;;
57790;SDS011;43621;51.798;21.588;2023-11-19T19:47:25;17.40;;;12.80;;
57790;SDS011;43621;51.798;21.588;2023-11-19T19:51:27;17.90;;;13.10;;
57790;SDS011;43621;51.798;21.588;2023-11-19T19:55:29;16.20;;;11.80;;
57790;SDS011;43621;51.798;21.588;2023-11-19T19:59:31;18.60;;;13.20;;
57790;SDS011;43621;51.798;21.588;2023-11-19T20:03:34;16.00;;;12.20;;
57790;SDS011;43621;51.798;21.588;2023-11-19T20:07:38;16.40;;;12.00;;
57790;SDS011;43621;51.798;21.588;2023-11-19T20:11:40;16.20;;;11.70;;
57790;SDS011;43621;51.798;21.588;2023-11-19T20:15:44;16.20;;;11.30;;
57790;SDS011;43621;51.798;21.588;2023-11-19T20:19:46;14.00;;;10.90;;
57790;SDS011;43621;51.798;21.588;2023-11-19T20:23:48;16.50;;;11.30;;
57790;SDS011;43621;51.798;21.588;2023-11-19T20:27:49;14.80;;;10.60;;
57790;SDS011;43621;51.798;21.588;2023-11-19T20:31:51;16.70;;;10.30;;
57790;SDS011;43621;51.798;21.588;2023-11-19T20:35:53;18.80;;;12.20;;
57790;SDS011;43621;51.798;21.588;2023-11-19T20:39:56;14.10;;;9.90;;
57790;SDS011;43621;51.798;21.588;2023-11-19T20:43:58;13.80;;;10.00;;
57790;SDS011;43621;51.798;21.588;2023-11-19T20:48:00;14.60;;;10.50;;
57790;SDS011;43621;51.798;21.588;2023-11-19T20:52:01;14.50;;;10.50;;
57790;SDS011;43621;51.798;21.588;2023-11-19T20:56:04;13.30;;;9.90;;
57790;SDS011;43621;51.798;21.588;2023-11-19T21:00:06;14.80;;;10.00;;
57790;SDS011;43621;51.798;21.588;2023-11-19T21:04:10;14.90;;;10.50;;
57790;SDS011;43621;51.798;21.588;2023-11-19T21:08:12;14.10;;;10.30;;
57790;SDS011;43621;51.798;21.588;2023-11-19T21:12:14;11.80;;;9.40;;
57790;SDS011;43621;51.798;21.588;2023-11-19T21:16:16;17.20;;;9.30;;
57790;SDS011;43621;51.798;21.588;2023-11-19T21:20:17;11.60;;;9.00;;
57790;SDS011;43621;51.798;21.588;2023-11-19T21:24:19;12.50;;;8.80;;
57790;SDS011;43621;51.798;21.588;2023-11-19T21:28:21;13.20;;;8.90;;
57790;SDS011;43621;51.798;21.588;2023-11-19T21:36:34;18.90;;;13.80;;
57790;SDS011;43621;51.798;21.588;2023-11-19T21:40:35;16.50;;;11.60;;
57790;SDS011;43621;51.798;21.588;2023-11-19T21:44:36;18.20;;;11.40;;
57790;SDS011;43621;51.798;21.588;2023-11-19T21:48:37;19.70;;;12.30;;
57790;SDS011;43621;51.798;21.588;2023-11-19T21:52:38;24.40;;;14.00;;
57790;SDS011;43621;51.798;21.588;2023-11-19T21:56:39;26.10;;;15.30;;
57790;SDS011;43621;51.798;21.588;2023-11-19T22:00:40;21.70;;;12.40;;
57790;SDS011;43621;51.798;21.588;2023-11-19T22:04:42;21.10;;;12.10;;
57790;SDS011;43621;51.798;21.588;2023-11-19T22:08:42;30.30;;;15.10;;
57790;SDS011;43621;51.798;21.588;2023-11-19T22:12:43;26.10;;;14.60;;
57790;SDS011;43621;51.798;21.588;2023-11-19T22:16:44;29.60;;;15.70;;
57790;SDS011;43621;51.798;21.588;2023-11-19T22:20:46;30.70;;;16.70;;
57790;SDS011;43621;51.798;21.588;2023-11-19T22:24:47;28.00;;;15.40;;
57790;SDS011;43621;51.798;21.588;2023-11-19T22:28:47;22.60;;;12.00;;
57790;SDS011;43621;51.798;21.588;2023-11-19T22:32:48;23.10;;;11.00;;
57790;SDS011;43621;51.798;21.588;2023-11-19T22:36:49;23.90;;;12.50;;
57790;SDS011;43621;51.798;21.588;2023-11-19T22:40:50;25.20;;;12.00;;
57790;SDS011;43621;51.798;21.588;2023-11-19T22:44:51;28.60;;;14.80;;
57790;SDS011;43621;51.798;21.588;2023-11-19T22:48:52;28.10;;;16.50;;
57790;SDS011;43621;51.798;21.588;2023-11-19T22:52:53;29.00;;;14.80;;
57790;SDS011;43621;51.798;21.588;2023-11-19T22:56:54;23.00;;;12.50;;
57790;SDS011;43621;51.798;21.588;2023-11-19T23:00:56;27.00;;;13.20;;
57790;SDS011;43621;51.798;21.588;2023-11-19T23:04:58;29.00;;;14.50;;
57790;SDS011;43621;51.798;21.588;2023-11-19T23:08:59;26.70;;;13.90;;
57790;SDS011;43621;51.798;21.588;2023-11-19T23:12:59;26.40;;;13.60;;
57790;SDS011;43621;51.798;21.588;2023-11-19T23:17:00;22.80;;;12.60;;
57790;SDS011;43621;51.798;21.588;2023-11-19T23:21:01;26.90;;;13.00;;
57790;SDS011;43621;51.798;21.588;2023-11-19T23:25:03;24.50;;;12.40;;
57790;SDS011;43621;51.798;21.588;2023-11-19T23:29:05;31.00;;;14.80;;
57790;SDS011;43621;51.798;21.588;2023-11-19T23:33:07;25.00;;;12.00;;
57790;SDS011;43621;51.798;21.588;2023-11-19T23:37:08;25.50;;;13.90;;
57790;SDS011;43621;51.798;21.588;2023-11-19T23:41:09;34.20;;;19.20;;
57790;SDS011;43621;51.798;21.588;2023-11-19T23:45:10;44.80;;;25.30;;
57790;SDS011;43621;51.798;21.588;2023-11-19T23:49:11;87.70;;;43.80;;
57790;SDS011;43621;51.798;21.588;2023-11-19T23:53:12;47.00;;;25.00;;
57790;SDS011;43621;51.798;21.588;2023-11-19T23:57:13;49.20;;;28.20;;
